Portada
METAR-TAF:

METAR-TAF

Aeroports :

Aeroport de Múrcia-San Javier

Múrcia, Espanya

latitud: 37-47N, longitud: 000-48W, altitud: 5 m

Observació

L'informe es va fer fa 20 minuts, a les 17:00 UTC
Vent 9 kt del Est, variant entre Nord/Nord-Est i Est/Sud-Est
Temperatura 24°C
Humitat 74%
Pressió 1019 hPa
Visibilitat 10 km o més
Escasses núvols a una alçada de 2000 ft

METAR: LELC 181700Z 08009KT 030V120 9999 FEW020 24/19 Q1019 NOSIG

Hora: 19:20 (17:20 UTC)

Pronòstic

L'informe es va fer fa 6 hores i 20 minuts, a les 11:00 UTC
Pronòstic vàlid del 18 a les 12 UTC al 19 a les 12 UTC
Vent 10 kt del Est
Visibilitat 10 km o més
Escasses núvols a una alçada de 2000 ft
Evolucionant progressivament
l' 18 a les 20 UTC al 18 a les 23 UTC
Vent 5 kt del Nord
Evolucionant progressivament
l' 19 a les 07 UTC al 19 a les 10 UTC
Vent 10 kt del Est/Nord-Est

TAF: LELC 181100Z 1812/1912 08010KT 9999 FEW020 TX27/1813Z TN18/1906Z BECMG 1820/1823 35005KT BECMG 1907/1910 07010KT

Observacions i pronòstics meteorològics de més de 4000 aeroports (METAR i TAF).

Les estacions disponibles són els punts grocs i vermells al mapa.

Posi el ratolí al punt desitjat per veure el nom de l'estació.

Feu clic per veure les observacions i els pronòstics meteorològics.

Per canviar el mapa: feu clic els botons verds amb una creu de color negre per apropar; al botó verd amb un guió per allunyar la imatge; o en les fletxes verdes per a mapes adjacents.


METAR-TAF: